Time;durP1;ratioP1;P1;durP2;ratioP2;P2;SDS_P1;SDS_P2;PMS_P1;PMS_P2;Temp;Humidity;BMP_temperature;BMP_pressure;BME280_temperature;BME280_humidity;BME280_pressure;Samples;Min_cycle;Max_cycle;Signal;HPM_P1;HPM_P2
2022/08/15 00:01:14;;;;;;;6.90;6.20;;;23.60;99.90;;;;;;5036362;28;20517;-80
2022/08/15 00:03:44;;;;;;;7.00;6.30;;;23.50;99.90;;;;;;5034857;28;20449;-80
2022/08/15 00:06:15;;;;;;;9.00;6.90;;;23.50;99.90;;;;;;5024070;28;20461;-81
2022/08/15 00:08:47;;;;;;;7.40;6.70;;;23.50;99.90;;;;;;5021018;28;20539;-80
2022/08/15 00:11:17;;;;;;;7.97;7.17;;;23.50;99.90;;;;;;5035112;28;20464;-80
2022/08/15 00:13:45;;;;;;;7.70;6.23;;;23.50;99.90;;;;;;5035355;28;20532;-80
2022/08/15 00:16:14;;;;;;;7.80;6.80;;;23.50;99.90;;;;;;5036038;28;21063;-80
2022/08/15 00:18:43;;;;;;;8.30;6.53;;;23.50;99.90;;;;;;5035737;28;20931;-83
2022/08/15 00:21:11;;;;;;;7.90;6.77;;;23.40;99.90;;;;;;5036490;28;20851;-82
2022/08/15 00:23:40;;;;;;;8.10;6.80;;;23.40;99.90;;;;;;5035914;28;20457;-82
2022/08/15 00:26:08;;;;;;;7.50;6.20;;;23.40;99.90;;;;;;5036742;28;20492;-83
2022/08/15 00:28:35;;;;;;;7.37;6.67;;;23.40;99.90;;;;;;5037229;28;20551;-81
2022/08/15 00:31:02;;;;;;;6.77;6.07;;;23.40;99.90;;;;;;5037416;28;20540;-83
2022/08/15 00:33:30;;;;;;;7.83;6.27;;;23.40;99.90;;;;;;5036063;28;20529;-81
2022/08/15 00:35:58;;;;;;;8.77;7.30;;;23.40;99.90;;;;;;5035594;28;20468;-82
2022/08/15 00:38:28;;;;;;;7.23;6.50;;;23.40;99.90;;;;;;5035828;28;21068;-80
2022/08/15 00:43:46;;;;;;;7.83;6.83;;;23.40;99.90;;;;;;5035946;28;20523;-83
2022/08/15 00:46:16;;;;;;;8.93;6.63;;;23.40;99.90;;;;;;5035980;28;20464;-80
2022/08/15 00:48:42;;;;;;;8.90;6.60;;;23.40;99.90;;;;;;5038293;28;20480;-83
2022/08/15 00:51:14;;;;;;;7.80;6.50;;;23.40;99.90;;;;;;5040672;28;20552;-80
2022/08/15 00:53:44;;;;;;;9.30;7.23;;;23.40;99.90;;;;;;5038758;28;20459;-83
2022/08/15 00:56:11;;;;;;;7.97;6.90;;;23.40;99.90;;;;;;5040034;28;20531;-80
2022/08/15 00:58:39;;;;;;;8.20;6.90;;;23.40;99.90;;;;;;5039425;28;20572;-81
2022/08/15 01:01:10;;;;;;;7.40;6.00;;;23.30;99.90;;;;;;5040343;28;20452;-80
2022/08/15 01:03:40;;;;;;;9.63;6.50;;;23.40;99.90;;;;;;5039239;28;20444;-83
2022/08/15 01:06:08;;;;;;;7.40;6.70;;;23.30;99.90;;;;;;5040712;28;20478;-83
2022/08/15 01:08:40;;;;;;;7.77;6.97;;;23.40;99.90;;;;;;5041295;28;20886;-82
2022/08/15 01:11:13;;;;;;;8.60;6.40;;;23.40;99.90;;;;;;5040040;28;20472;-80
2022/08/15 01:13:42;;;;;;;8.17;6.87;;;23.40;99.90;;;;;;5039859;28;20862;-79
2022/08/15 01:16:09;;;;;;;7.10;6.40;;;23.40;99.90;;;;;;5039657;28;20477;-82
2022/08/15 01:18:36;;;;;;;6.80;6.03;;;23.40;99.90;;;;;;5040523;28;20583;-81
2022/08/15 01:21:12;;;;;;;7.80;7.00;;;23.40;99.90;;;;;;5040068;28;20488;-83
2022/08/15 01:23:51;;;;;;;7.57;5.90;;;23.40;99.90;;;;;;5038952;28;20808;-81
2022/08/15 01:26:21;;;;;;;7.00;6.30;;;23.30;99.90;;;;;;5020268;28;20557;-82
2022/08/15 01:28:48;;;;;;;7.40;5.43;;;23.40;99.90;;;;;;5020031;28;20492;-82
2022/08/15 01:31:17;;;;;;;6.50;5.43;;;23.30;99.90;;;;;;5019698;28;20454;-80
2022/08/15 01:33:48;;;;;;;6.80;6.03;;;23.40;99.90;;;;;;5019961;28;21005;-82
2022/08/15 01:36:16;;;;;;;7.20;6.50;;;23.40;99.90;;;;;;5032454;28;20476;-80
2022/08/15 01:38:49;;;;;;;6.97;6.27;;;23.40;99.90;;;;;;5041111;28;20929;-83
2022/08/15 01:41:24;;;;;;;6.80;5.80;;;23.40;99.90;;;;;;5041545;28;20437;-81
2022/08/15 01:43:58;;;;;;;7.17;6.13;;;23.40;99.90;;;;;;5041255;28;20903;-82
2022/08/15 01:46:32;;;;;;;5.97;5.37;;;23.40;99.90;;;;;;5043368;28;20528;-83
2022/08/15 01:49:06;;;;;;;8.23;6.63;;;23.40;99.90;;;;;;5043624;28;20853;-83
2022/08/15 01:51:33;;;;;;;8.13;6.03;;;23.30;99.90;;;;;;5042755;28;20540;-84
2022/08/15 01:54:06;;;;;;;8.00;6.93;;;23.30;99.90;;;;;;5041138;28;20491;-81
2022/08/15 01:56:36;;;;;;;7.40;6.43;;;23.30;99.90;;;;;;5043344;28;20500;-83
2022/08/15 01:59:05;;;;;;;7.07;6.07;;;23.40;99.90;;;;;;5042920;28;20548;-83
2022/08/15 02:01:43;;;;;;;7.80;7.00;;;23.30;99.90;;;;;;5043472;28;21033;-83
2022/08/15 02:04:12;;;;;;;7.20;6.50;;;23.30;99.90;;;;;;5042983;28;20451;-82
2022/08/15 02:06:40;;;;;;;8.13;6.20;;;23.30;99.90;;;;;;5043680;28;20526;-80
2022/08/15 02:09:09;;;;;;;7.60;6.43;;;23.30;99.90;;;;;;5040751;28;20445;-81
2022/08/15 02:11:37;;;;;;;8.40;6.80;;;23.20;99.90;;;;;;5037192;28;20448;-80
2022/08/15 02:14:04;;;;;;;7.93;6.67;;;23.20;99.90;;;;;;5036545;28;20477;-80
2022/08/15 02:16:35;;;;;;;8.20;6.30;;;23.20;99.90;;;;;;5035357;28;20472;-80
2022/08/15 02:19:02;;;;;;;7.57;6.50;;;23.20;99.90;;;;;;5039909;28;20472;-82
2022/08/15 02:21:29;;;;;;;7.60;6.50;;;23.20;99.90;;;;;;5039247;28;20449;-80
2022/08/15 02:23:57;;;;;;;7.33;6.03;;;23.20;99.90;;;;;;5039461;28;20480;-80
2022/08/15 02:26:25;;;;;;;6.10;5.50;;;23.20;99.90;;;;;;5038555;28;20671;-80
2022/08/15 02:28:54;;;;;;;7.70;6.90;;;23.20;99.90;;;;;;5038939;28;20539;-80
2022/08/15 02:31:24;;;;;;;7.27;6.47;;;23.20;99.90;;;;;;5038941;28;20463;-81
2022/08/15 02:33:54;;;;;;;8.30;7.37;;;23.20;99.90;;;;;;5024012;28;20457;-79
2022/08/15 02:36:22;;;;;;;7.60;6.33;;;23.10;99.90;;;;;;5028973;28;21001;-82
2022/08/15 02:38:50;;;;;;;7.20;6.50;;;23.20;99.90;;;;;;5038031;28;20579;-82
2022/08/15 02:41:21;;;;;;;8.27;6.80;;;23.10;99.90;;;;;;5075204;22;20581;-82
2022/08/15 02:43:49;;;;;;;7.90;6.53;;;23.10;99.90;;;;;;5068686;28;20854;-81
2022/08/15 02:46:18;;;;;;;7.47;6.20;;;23.10;99.90;;;;;;5073952;28;20447;-81
2022/08/15 02:48:46;;;;;;;6.07;5.40;;;23.10;99.90;;;;;;5068047;28;20521;-82
2022/08/15 02:51:14;;;;;;;6.70;6.00;;;23.10;99.90;;;;;;5075075;28;20926;-82
2022/08/15 02:53:43;;;;;;;6.00;5.10;;;23.10;99.90;;;;;;5064763;28;20454;-84
2022/08/15 02:56:11;;;;;;;6.70;5.63;;;23.00;99.90;;;;;;5063317;28;20966;-81
2022/08/15 02:58:38;;;;;;;8.70;5.90;;;23.00;99.90;;;;;;5075559;28;20574;-81
2022/08/15 03:01:08;;;;;;;7.90;6.23;;;22.90;99.90;;;;;;5066754;28;20551;-82
2022/08/15 03:03:38;;;;;;;6.60;5.07;;;22.90;99.90;;;;;;5059673;28;20537;-82
2022/08/15 03:06:08;;;;;;;6.60;5.90;;;22.90;99.90;;;;;;5066187;28;20451;-81
2022/08/15 03:08:35;;;;;;;8.70;6.30;;;22.90;99.90;;;;;;5079258;28;20444;-82
2022/08/15 03:11:02;;;;;;;6.83;5.63;;;22.90;99.90;;;;;;5076875;28;20483;-83
2022/08/15 03:13:30;;;;;;;7.60;5.23;;;22.90;99.90;;;;;;5077635;28;20516;-81
2022/08/15 03:15:58;;;;;;;5.87;5.23;;;22.90;99.90;;;;;;5074484;28;20829;-81
2022/08/15 03:18:28;;;;;;;7.00;5.87;;;22.90;99.90;;;;;;5077814;28;20532;-81
2022/08/15 03:20:57;;;;;;;11.60;5.30;;;22.90;99.90;;;;;;5078763;28;20476;-81
2022/08/15 03:23:27;;;;;;;6.13;5.10;;;22.90;99.90;;;;;;5074796;28;20470;-81
2022/08/15 03:25:59;;;;;;;5.83;5.03;;;22.90;99.90;;;;;;5065604;28;20464;-81
2022/08/15 03:28:31;;;;;;;5.63;4.47;;;22.90;99.90;;;;;;5075741;28;20451;-81
2022/08/15 03:31:00;;;;;;;9.30;4.70;;;22.80;99.90;;;;;;5072010;28;20479;-82
2022/08/15 03:33:28;;;;;;;7.00;3.93;;;22.80;99.90;;;;;;5057655;28;20538;-82
2022/08/15 03:35:56;;;;;;;5.10;3.80;;;22.80;99.90;;;;;;5062852;28;20451;-82
2022/08/15 03:38:23;;;;;;;4.97;4.23;;;22.80;99.90;;;;;;5077712;28;20450;-82
2022/08/15 03:40:51;;;;;;;5.63;3.80;;;22.80;99.90;;;;;;5076669;28;20561;-81
2022/08/15 03:43:20;;;;;;;4.00;3.37;;;22.80;99.90;;;;;;5076684;28;20447;-81
2022/08/15 03:45:50;;;;;;;5.50;3.93;;;22.70;99.90;;;;;;5073740;28;20452;-80
2022/08/15 03:48:18;;;;;;;5.13;4.30;;;22.70;99.90;;;;;;5057843;28;20526;-80
2022/08/15 03:51:04;;;;;;;8.50;4.10;;;22.70;99.90;;;;;;5053117;28;20482;-81
2022/08/15 03:53:35;;;;;;;5.07;3.63;;;22.70;99.90;;;;;;5066727;28;20535;-82
2022/08/15 03:56:05;;;;;;;5.87;3.80;;;22.70;99.90;;;;;;5058518;28;20452;-82
2022/08/15 03:58:33;;;;;;;4.70;3.83;;;22.70;99.90;;;;;;5059355;28;20519;-82
2022/08/15 04:01:00;;;;;;;6.40;3.83;;;22.70;99.90;;;;;;5066991;28;20990;-83
2022/08/15 04:03:29;;;;;;;7.63;4.20;;;22.70;99.90;;;;;;5067029;28;20479;-81
2022/08/15 04:05:58;;;;;;;5.20;3.67;;;22.70;99.90;;;;;;5061460;28;20477;-82
2022/08/15 04:08:26;;;;;;;4.93;3.50;;;22.70;99.90;;;;;;5056047;28;20527;-81
2022/08/15 04:11:00;;;;;;;4.97;3.00;;;22.70;99.90;;;;;;5059229;28;20478;-82
2022/08/15 04:13:27;;;;;;;6.10;3.40;;;22.60;99.90;;;;;;5063886;28;20465;-81
2022/08/15 04:15:55;;;;;;;4.67;3.20;;;22.60;99.90;;;;;;5059329;28;20451;-81
2022/08/15 04:18:22;;;;;;;5.87;3.00;;;22.60;99.90;;;;;;5063765;28;20530;-81
2022/08/15 04:20:50;;;;;;;5.03;3.23;;;22.60;99.90;;;;;;5065002;28;20480;-82
2022/08/15 04:23:16;;;;;;;4.33;2.90;;;22.60;99.90;;;;;;5083792;28;20447;-83
2022/08/15 04:25:44;;;;;;;4.00;2.93;;;22.70;99.90;;;;;;5077067;28;20455;-81
2022/08/15 04:28:15;;;;;;;4.50;2.80;;;22.60;99.90;;;;;;5069122;28;20451;-81
2022/08/15 04:30:44;;;;;;;4.53;2.80;;;22.60;99.90;;;;;;5077134;28;20581;-81
2022/08/15 04:33:13;;;;;;;5.53;3.00;;;22.60;99.90;;;;;;5070555;28;20452;-83
2022/08/15 04:35:42;;;;;;;4.60;2.90;;;22.70;99.90;;;;;;5076162;28;20489;-83
2022/08/15 04:38:10;;;;;;;5.20;3.00;;;22.70;99.90;;;;;;5062163;28;20543;-83
2022/08/15 04:40:37;;;;;;;5.17;3.30;;;22.70;99.90;;;;;;5060332;28;20517;-82
2022/08/15 04:43:05;;;;;;;6.10;3.10;;;22.70;99.90;;;;;;5060818;28;20475;-82
2022/08/15 04:45:38;;;;;;;5.73;3.00;;;22.70;99.90;;;;;;5060775;28;20944;-80
2022/08/15 04:48:05;;;;;;;5.53;2.77;;;22.80;99.90;;;;;;5060944;28;20456;-80
2022/08/15 04:50:34;;;;;;;8.30;2.73;;;22.70;99.90;;;;;;5059507;28;20562;-82
2022/08/15 04:53:01;;;;;;;5.07;3.00;;;22.70;99.90;;;;;;5059266;28;20486;-81
2022/08/15 04:55:29;;;;;;;4.70;2.63;;;22.80;99.90;;;;;;5060990;28;20454;-81
2022/08/15 04:57:58;;;;;;;6.47;3.10;;;22.80;99.90;;;;;;5061389;28;20483;-82
2022/08/15 05:00:27;;;;;;;3.60;2.77;;;22.90;99.90;;;;;;5061210;28;20488;-82
2022/08/15 05:03:04;;;;;;;5.50;2.67;;;22.90;99.90;;;;;;5060580;28;20490;-81
2022/08/15 05:05:32;;;;;;;4.07;2.83;;;22.90;99.90;;;;;;5062296;28;20493;-82
2022/08/15 05:07:59;;;;;;;5.50;3.17;;;22.90;99.90;;;;;;5080657;28;20486;-81
2022/08/15 05:10:27;;;;;;;5.97;3.53;;;22.90;99.90;;;;;;5080489;28;20471;-82
2022/08/15 05:12:53;;;;;;;5.63;2.83;;;22.80;99.90;;;;;;5073109;28;20513;-81
2022/08/15 05:15:22;;;;;;;4.30;2.70;;;22.90;99.90;;;;;;5077853;28;21038;-80
2022/08/15 05:17:50;;;;;;;6.53;2.97;;;22.90;99.90;;;;;;5079583;28;20443;-80
2022/08/15 05:20:21;;;;;;;6.13;2.90;;;23.00;99.90;;;;;;5080844;28;20479;-81
2022/08/15 05:22:55;;;;;;;3.80;2.60;;;23.00;99.90;;;;;;5079509;28;20477;-81
2022/08/15 05:25:23;;;;;;;4.17;2.60;;;23.00;99.90;;;;;;5072750;28;20447;-81
2022/08/15 05:27:51;;;;;;;4.73;2.80;;;23.10;99.90;;;;;;5065657;28;20456;-80
2022/08/15 05:30:20;;;;;;;6.10;3.03;;;23.00;99.90;;;;;;5058098;28;20467;-81
2022/08/15 05:32:47;;;;;;;5.03;3.10;;;23.10;99.90;;;;;;5075366;28;20457;-81
2022/08/15 05:35:15;;;;;;;4.13;2.30;;;23.00;99.90;;;;;;5077157;28;20454;-81
2022/08/15 05:37:46;;;;;;;6.00;3.00;;;23.00;99.90;;;;;;5061366;28;20808;-82
2022/08/15 05:40:13;;;;;;;3.90;2.60;;;23.00;99.90;;;;;;5057658;28;20468;-81
2022/08/15 05:42:48;;;;;;;5.80;3.13;;;23.10;99.90;;;;;;5058304;28;20440;-80
2022/08/15 05:45:25;;;;;;;9.77;3.00;;;23.10;99.90;;;;;;5057990;28;20526;-81
2022/08/15 05:48:01;;;;;;;3.70;2.40;;;23.10;99.90;;;;;;5067110;28;20519;-81
2022/08/15 05:50:32;;;;;;;6.27;3.37;;;23.10;99.90;;;;;;5058947;28;20463;-81
2022/08/15 05:53:16;;;;;;;7.13;3.33;;;23.20;99.90;;;;;;5079121;28;20446;-81
2022/08/15 05:55:48;;;;;;;7.33;2.80;;;23.20;99.90;;;;;;5079368;28;20542;-81
2022/08/15 05:58:32;;;;;;;5.43;3.13;;;23.20;99.90;;;;;;5061128;28;20942;-81
2022/08/15 06:01:05;;;;;;;10.00;3.17;;;23.30;99.90;;;;;;5059628;28;20490;-80
2022/08/15 06:03:35;;;;;;;5.23;2.93;;;23.30;99.90;;;;;;5060620;28;20523;-80
2022/08/15 06:06:07;;;;;;;6.57;3.80;;;23.30;99.90;;;;;;5061558;28;20472;-81
2022/08/15 06:08:41;;;;;;;5.27;3.10;;;23.20;99.90;;;;;;5080064;28;21133;-81
2022/08/15 06:11:13;;;;;;;4.50;3.03;;;23.30;99.90;;;;;;5079435;28;20504;-81
2022/08/15 06:13:44;;;;;;;6.80;2.70;;;23.40;99.90;;;;;;5069860;28;20479;-80
2022/08/15 06:16:16;;;;;;;3.97;2.70;;;23.40;99.90;;;;;;5062274;28;20459;-81
2022/08/15 06:18:45;;;;;;;6.10;2.70;;;23.50;99.90;;;;;;5078929;28;20880;-81
2022/08/15 06:21:27;;;;;;;4.63;2.83;;;23.40;99.90;;;;;;5078091;28;20498;-81
2022/08/15 06:24:04;;;;;;;5.87;2.53;;;23.50;99.90;;;;;;5077795;28;20530;-80
2022/08/15 06:26:43;;;;;;;7.40;2.80;;;23.60;99.90;;;;;;5073247;28;20558;-81
2022/08/15 06:29:32;;;;;;;5.13;2.67;;;23.60;99.90;;;;;;5059970;28;20523;-81
2022/08/15 06:32:03;;;;;;;10.60;3.07;;;23.70;99.90;;;;;;5060875;28;20849;-81
2022/08/15 06:34:39;;;;;;;9.60;3.03;;;23.70;99.90;;;;;;5084618;28;20482;-81
2022/08/15 06:37:13;;;;;;;5.90;2.83;;;23.70;99.90;;;;;;5076145;28;20451;-80
2022/08/15 06:39:50;;;;;;;6.80;3.07;;;23.70;99.90;;;;;;5067462;28;20495;-81
2022/08/15 06:42:23;;;;;;;3.97;2.30;;;23.60;99.90;;;;;;5077222;28;20505;-82
2022/08/15 06:44:55;;;;;;;7.77;3.37;;;23.70;99.90;;;;;;5082945;28;20987;-81
2022/08/15 06:47:23;;;;;;;4.07;2.50;;;23.60;99.90;;;;;;5075681;28;20442;-81
2022/08/15 06:49:54;;;;;;;5.37;2.57;;;23.70;99.90;;;;;;5085301;28;20485;-81
2022/08/15 06:52:22;;;;;;;7.20;2.70;;;23.60;99.90;;;;;;5081637;28;20502;-81
2022/08/15 06:54:50;;;;;;;6.20;2.60;;;23.70;99.90;;;;;;5080164;28;20447;-81
2022/08/15 06:57:21;;;;;;;5.67;2.87;;;23.70;99.90;;;;;;5065850;28;20539;-81
2022/08/15 07:00:00;;;;;;;10.47;2.93;;;23.60;99.90;;;;;;5062344;28;20473;-81
2022/08/15 07:02:40;;;;;;;4.53;2.20;;;23.70;99.90;;;;;;5062942;28;20583;-82
2022/08/15 07:05:15;;;;;;;4.80;3.07;;;23.70;99.90;;;;;;5071180;28;20470;-81
2022/08/15 07:07:46;;;;;;;6.73;2.60;;;23.70;99.90;;;;;;5062517;28;20470;-81
2022/08/15 07:10:24;;;;;;;4.30;3.10;;;23.60;99.90;;;;;;5059065;28;20440;-81
2022/08/15 07:12:58;;;;;;;4.70;2.47;;;23.70;99.90;;;;;;5068685;28;20550;-82
2022/08/15 07:15:36;;;;;;;4.60;2.43;;;23.80;99.90;;;;;;5058285;28;20431;-81
2022/08/15 07:18:07;;;;;;;4.93;3.13;;;23.90;99.90;;;;;;5060407;28;20447;-81
2022/08/15 07:20:34;;;;;;;3.83;2.13;;;23.90;99.90;;;;;;5058346;28;20562;-82
2022/08/15 07:23:15;;;;;;;6.33;2.33;;;23.70;99.90;;;;;;5060171;28;20446;-82
2022/08/15 07:25:47;;;;;;;3.50;2.37;;;23.80;99.90;;;;;;5058943;28;20471;-81
2022/08/15 07:28:21;;;;;;;6.73;2.40;;;23.90;99.90;;;;;;5068626;28;21015;-81
2022/08/15 07:30:53;;;;;;;4.50;2.07;;;23.90;99.90;;;;;;5066239;28;20470;-83
2022/08/15 07:33:44;;;;;;;3.50;2.27;;;23.90;99.90;;;;;;5055559;28;20539;-82
2022/08/15 07:36:18;;;;;;;5.37;2.60;;;23.80;99.90;;;;;;5075646;28;20526;-83
2022/08/15 07:38:45;;;;;;;6.87;2.13;;;23.80;99.90;;;;;;5057594;28;20494;-82
2022/08/15 07:41:23;;;;;;;5.83;2.83;;;23.90;99.90;;;;;;5061386;28;20479;-83
2022/08/15 07:43:53;;;;;;;6.70;2.30;;;23.90;99.90;;;;;;5077069;28;20503;-83
2022/08/15 07:46:23;;;;;;;4.43;2.40;;;23.90;99.90;;;;;;5077628;28;20454;-82
2022/08/15 07:49:18;;;;;;;8.43;2.70;;;23.80;99.90;;;;;;5058353;28;20451;-82
2022/08/15 07:51:49;;;;;;;8.00;2.67;;;23.80;99.90;;;;;;5067542;28;20495;-81
2022/08/15 07:54:27;;;;;;;4.10;2.30;;;23.80;99.90;;;;;;5056085;28;20523;-83
2022/08/15 07:56:59;;;;;;;6.13;2.53;;;23.90;99.90;;;;;;5070673;28;20462;-83
2022/08/15 07:59:30;;;;;;;5.47;2.57;;;24.00;99.90;;;;;;5077875;28;20810;-82
2022/08/15 08:02:06;;;;;;;8.17;2.50;;;24.00;99.90;;;;;;5068001;28;20468;-82
2022/08/15 08:04:34;;;;;;;7.37;3.20;;;24.10;99.90;;;;;;5064136;28;20424;-80
2022/08/15 08:07:13;;;;;;;5.50;2.50;;;24.10;99.90;;;;;;5059220;28;20454;-83
2022/08/15 08:09:44;;;;;;;7.90;2.40;;;24.10;99.90;;;;;;5064299;28;20455;-82
2022/08/15 08:12:21;;;;;;;5.67;2.57;;;24.10;99.90;;;;;;5059820;28;20554;-81
2022/08/15 08:15:02;;;;;;;6.30;2.37;;;24.10;99.90;;;;;;5071452;28;20490;-84
2022/08/15 08:17:36;;;;;;;3.37;2.33;;;24.30;99.90;;;;;;5080759;28;20435;-83
2022/08/15 08:20:13;;;;;;;5.60;2.80;;;24.40;99.90;;;;;;5059813;28;20464;-82
2022/08/15 08:22:47;;;;;;;6.03;2.50;;;24.40;99.90;;;;;;5077086;28;20450;-83
2022/08/15 08:25:20;;;;;;;4.30;2.30;;;24.40;99.90;;;;;;5080753;28;20458;-83
2022/08/15 08:28:04;;;;;;;11.60;2.67;;;24.40;99.90;;;;;;5076600;28;20438;-81
2022/08/15 08:30:38;;;;;;;4.20;2.63;;;24.20;99.90;;;;;;5061731;28;20443;-81
2022/08/15 08:33:18;;;;;;;5.50;2.57;;;24.10;99.90;;;;;;5077280;28;20447;-83
2022/08/15 08:35:52;;;;;;;5.27;2.40;;;24.10;99.90;;;;;;5075430;28;20443;-81
2022/08/15 08:38:29;;;;;;;4.97;2.47;;;24.20;99.90;;;;;;5075707;28;20516;-82
2022/08/15 08:43:58;;;;;;;5.20;2.40;;;24.20;99.90;;;;;;5073948;28;20553;-82
2022/08/15 08:46:49;;;;;;;4.87;2.43;;;24.30;99.90;;;;;;5073279;28;20452;-81
2022/08/15 08:49:25;;;;;;;5.77;2.60;;;24.40;99.90;;;;;;5067297;28;20468;-82
2022/08/15 08:52:02;;;;;;;7.70;2.73;;;24.30;99.90;;;;;;5053276;28;20898;-82
2022/08/15 08:54:34;;;;;;;5.30;2.43;;;24.40;99.90;;;;;;5060254;28;20470;-82
2022/08/15 08:57:05;;;;;;;6.43;2.57;;;24.30;99.90;;;;;;5065718;28;20961;-81
2022/08/15 08:59:49;;;;;;;6.90;2.77;;;24.40;99.90;;;;;;5058702;28;20955;-81
2022/08/15 09:02:21;;;;;;;7.87;2.80;;;24.50;99.90;;;;;;5084893;22;20514;-79
2022/08/15 09:04:54;;;;;;;5.50;2.87;;;24.50;99.90;;;;;;5075315;28;20439;-80
2022/08/15 09:07:28;;;;;;;5.80;2.73;;;24.50;99.90;;;;;;5077377;28;20785;-79
2022/08/15 09:09:58;;;;;;;5.73;2.60;;;24.40;99.90;;;;;;5078410;28;20482;-79
2022/08/15 09:15:17;;;;;;;6.03;2.30;;;24.50;99.90;;;;;;5060024;28;20414;-81
2022/08/15 09:17:49;;;;;;;4.23;2.40;;;24.50;99.90;;;;;;5059354;28;20434;-80
2022/08/15 09:20:20;;;;;;;6.03;4.30;;;24.50;99.90;;;;;;5059981;28;20566;-78
2022/08/15 09:22:48;;;;;;;7.90;3.20;;;24.50;99.90;;;;;;5039090;28;20468;-79
2022/08/15 09:25:16;;;;;;;5.40;3.07;;;24.50;99.90;;;;;;5038548;28;20476;-79
2022/08/15 09:27:49;;;;;;;4.63;2.67;;;24.50;99.90;;;;;;5038181;28;20798;-80
2022/08/15 09:30:19;;;;;;;4.50;2.70;;;24.60;99.90;;;;;;5057756;28;20488;-78
2022/08/15 09:33:01;;;;;;;4.77;2.83;;;24.60;99.90;;;;;;5075407;28;20561;-77
2022/08/15 09:35:46;;;;;;;8.00;2.57;;;24.60;99.90;;;;;;5077241;28;20508;-80
2022/08/15 09:38:28;;;;;;;4.33;2.90;;;24.60;99.90;;;;;;5072826;28;20462;-79
2022/08/15 09:41:28;;;;;;;5.47;2.57;;;24.60;99.90;;;;;;5062521;28;20561;-80
2022/08/15 09:44:20;;;;;;;4.50;2.47;;;24.50;99.90;;;;;;5077125;28;20445;-79
2022/08/15 09:47:27;;;;;;;4.03;2.50;;;24.70;99.90;;;;;;5077959;28;20434;-79
2022/08/15 09:50:19;;;;;;;6.10;2.73;;;24.70;99.90;;;;;;5059438;28;20456;-78
2022/08/15 09:52:59;;;;;;;7.20;2.83;;;24.80;99.90;;;;;;5057447;28;20551;-82
2022/08/15 09:55:32;;;;;;;5.50;2.87;;;24.90;99.90;;;;;;5058813;28;20475;-82
2022/08/15 09:58:10;;;;;;;6.83;2.60;;;24.90;99.90;;;;;;5058811;28;20455;-81
2022/08/15 10:00:41;;;;;;;5.30;3.20;;;25.10;99.90;;;;;;5060332;28;20480;-81
2022/08/15 10:03:26;;;;;;;4.83;2.80;;;25.10;99.90;;;;;;5077984;28;20495;-81
2022/08/15 10:06:05;;;;;;;4.10;2.60;;;25.20;99.90;;;;;;5078551;28;20515;-81
2022/08/15 10:09:09;;;;;;;6.33;3.20;;;25.30;99.90;;;;;;5073530;28;20514;-82
2022/08/15 10:12:11;;;;;;;5.57;2.93;;;25.30;99.90;;;;;;5069107;28;20550;-78
2022/08/15 10:14:43;;;;;;;5.77;3.07;;;25.50;99.90;;;;;;5072784;28;20517;-80
2022/08/15 10:17:39;;;;;;;7.97;2.97;;;25.50;99.90;;;;;;5078593;28;20513;-78
2022/08/15 10:20:50;;;;;;;6.07;2.80;;;25.50;99.90;;;;;;5058503;28;20464;-81
2022/08/15 10:23:19;;;;;;;6.63;3.13;;;25.50;99.90;;;;;;5037174;28;20493;-80
2022/08/15 10:25:48;;;;;;;6.23;2.93;;;25.70;99.90;;;;;;5038894;28;20459;-81
2022/08/15 10:28:23;;;;;;;5.70;3.83;;;25.80;99.90;;;;;;5042763;28;20463;-80
2022/08/15 10:31:26;;;;;;;8.77;4.10;;;25.80;99.90;;;;;;5058107;28;20447;-78
2022/08/15 10:33:57;;;;;;;4.17;2.20;;;26.00;99.90;;;;;;5057832;28;20423;-82
2022/08/15 10:36:30;;;;;;;6.93;3.10;;;26.20;99.90;;;;;;5058512;28;20437;-79
2022/08/15 10:39:12;;;;;;;6.03;3.40;;;26.10;99.90;;;;;;5057969;28;20447;-82
2022/08/15 10:41:50;;;;;;;6.47;3.20;;;26.00;99.90;;;;;;5066447;28;20581;-79
2022/08/15 10:44:23;;;;;;;5.60;3.27;;;26.00;99.90;;;;;;5076736;28;20557;-80
2022/08/15 10:47:04;;;;;;;4.70;3.13;;;26.10;99.90;;;;;;5077023;28;20451;-79
2022/08/15 10:49:39;;;;;;;5.80;2.90;;;26.10;99.90;;;;;;5063431;28;20475;-80
2022/08/15 10:52:27;;;;;;;5.63;3.50;;;26.00;99.90;;;;;;5070244;28;20490;-80
2022/08/15 10:55:18;;;;;;;6.63;3.27;;;25.80;99.90;;;;;;5075970;28;20486;-80
2022/08/15 10:57:50;;;;;;;5.47;3.10;;;25.70;99.90;;;;;;5076712;28;20427;-79
2022/08/15 11:00:37;;;;;;;4.10;3.20;;;25.90;99.90;;;;;;5057280;28;20475;-79
2022/08/15 11:03:06;;;;;;;5.17;3.20;;;25.90;99.90;;;;;;5044477;28;20517;-79
2022/08/15 11:05:33;;;;;;;6.07;3.47;;;26.00;99.90;;;;;;5056572;28;20531;-79
2022/08/15 11:08:02;;;;;;;8.20;3.57;;;25.70;99.90;;;;;;5057018;28;20440;-79
2022/08/15 11:10:32;;;;;;;7.50;3.13;;;25.80;99.90;;;;;;5036530;28;20503;-79
2022/08/15 11:13:07;;;;;;;8.63;4.40;;;26.00;99.90;;;;;;5070457;28;20475;-79
2022/08/15 11:15:47;;;;;;;4.03;3.07;;;26.10;99.90;;;;;;5076712;28;20863;-79
2022/08/15 11:18:20;;;;;;;6.37;3.20;;;26.00;99.90;;;;;;5074234;28;20439;-80
2022/08/15 11:20:52;;;;;;;5.27;3.50;;;26.00;99.90;;;;;;5057738;28;20554;-81
2022/08/15 11:23:34;;;;;;;6.00;3.43;;;26.30;99.90;;;;;;5075556;28;20810;-78
2022/08/15 11:26:01;;;;;;;5.00;2.97;;;27.20;99.90;;;;;;5076766;28;20984;-78
2022/08/15 11:28:30;;;;;;;6.57;3.17;;;27.50;99.90;;;;;;5072723;28;20866;-80
2022/08/15 11:31:03;;;;;;;5.63;3.70;;;27.50;99.90;;;;;;5056047;28;20534;-81
2022/08/15 11:33:40;;;;;;;5.90;3.90;;;27.60;99.90;;;;;;5054980;28;20543;-79
2022/08/15 11:36:10;;;;;;;4.87;3.40;;;27.40;99.90;;;;;;5056435;28;20459;-78
2022/08/15 11:38:42;;;;;;;6.83;3.20;;;27.20;99.90;;;;;;5057050;28;20439;-77
2022/08/15 11:41:11;;;;;;;5.87;3.47;;;27.10;99.90;;;;;;5056794;28;20528;-77
2022/08/15 11:43:40;;;;;;;9.10;4.17;;;27.50;99.90;;;;;;5054894;28;20448;-79
2022/08/15 11:46:07;;;;;;;6.37;3.60;;;28.10;99.90;;;;;;5056618;28;20501;-78
2022/08/15 11:48:39;;;;;;;6.10;3.63;;;28.80;99.90;;;;;;5055672;28;20452;-79
2022/08/15 11:51:10;;;;;;;6.97;3.50;;;29.50;99.90;;;;;;5056176;28;20440;-78
2022/08/15 11:53:41;;;;;;;5.07;3.47;;;29.90;99.90;;;;;;5055235;28;21004;-79
2022/08/15 11:56:09;;;;;;;8.33;4.27;;;30.10;99.90;;;;;;5055242;28;20463;-78
2022/08/15 11:58:44;;;;;;;8.17;3.50;;;29.90;99.90;;;;;;5055884;28;20456;-79
2022/08/15 12:01:23;;;;;;;6.23;4.07;;;29.80;99.90;;;;;;5055407;28;21125;-81
2022/08/15 12:04:04;;;;;;;6.83;3.30;;;29.90;99.90;;;;;;5053505;28;20869;-78
2022/08/15 12:06:33;;;;;;;6.57;3.43;;;29.30;99.90;;;;;;5055639;28;20452;-80
2022/08/15 12:09:15;;;;;;;6.47;4.00;;;29.10;99.90;;;;;;5054844;28;20452;-78
2022/08/15 12:11:45;;;;;;;6.20;3.20;;;28.70;99.90;;;;;;5055046;28;20558;-77
2022/08/15 12:14:19;;;;;;;5.80;3.37;;;28.20;99.90;;;;;;5055080;28;20440;-80
2022/08/15 12:16:49;;;;;;;6.67;3.90;;;28.00;99.90;;;;;;5054055;28;20440;-78
2022/08/15 12:19:30;;;;;;;6.63;3.80;;;27.60;99.90;;;;;;5055028;28;20448;-79
2022/08/15 12:21:59;;;;;;;6.63;3.33;;;27.10;99.90;;;;;;5064555;28;20510;-78
2022/08/15 12:24:32;;;;;;;6.93;4.00;;;26.90;99.90;;;;;;5074718;28;20482;-81
2022/08/15 12:27:01;;;;;;;7.87;3.60;;;26.90;99.90;;;;;;5075867;28;20514;-79
2022/08/15 12:29:29;;;;;;;6.10;4.10;;;26.50;99.90;;;;;;5065468;28;20444;-80
2022/08/15 12:31:58;;;;;;;5.93;4.00;;;26.40;99.90;;;;;;5067642;28;20510;-83
2022/08/15 12:34:28;;;;;;;7.30;4.00;;;26.00;99.90;;;;;;5084033;28;20443;-79
2022/08/15 12:36:56;;;;;;;11.13;3.63;;;25.90;99.90;;;;;;5089148;28;20435;-80
2022/08/15 12:39:23;;;;;;;16.77;5.63;;;25.90;99.90;;;;;;5081633;28;20458;-80
2022/08/15 12:41:53;;;;;;;5.90;3.47;;;26.00;99.90;;;;;;5070988;28;20503;-79
2022/08/15 12:44:23;;;;;;;5.57;4.37;;;26.20;99.90;;;;;;5078388;28;20450;-81
2022/08/15 12:46:50;;;;;;;5.60;3.93;;;25.90;99.90;;;;;;5080208;28;20506;-80
2022/08/15 12:49:18;;;;;;;5.37;3.60;;;26.00;99.90;;;;;;5070536;28;20800;-79
2022/08/15 12:51:45;;;;;;;4.80;3.80;;;26.00;99.90;;;;;;5066752;28;20522;-79
2022/08/15 12:54:12;;;;;;;6.83;4.40;;;26.10;99.90;;;;;;5080222;28;20973;-80
2022/08/15 12:56:39;;;;;;;7.33;3.70;;;25.80;99.90;;;;;;5080124;28;20438;-77
2022/08/15 12:59:08;;;;;;;6.10;3.57;;;25.90;99.90;;;;;;5073563;28;20458;-80
2022/08/15 13:01:36;;;;;;;6.87;3.97;;;26.00;99.90;;;;;;5065206;28;20569;-83
2022/08/15 13:04:06;;;;;;;6.37;3.40;;;25.80;99.90;;;;;;5079817;28;20499;-81
2022/08/15 13:06:38;;;;;;;5.53;3.73;;;26.00;99.90;;;;;;5080710;28;20447;-81
2022/08/15 13:09:06;;;;;;;7.70;4.10;;;26.10;99.90;;;;;;5076215;28;20493;-81
2022/08/15 13:11:33;;;;;;;10.20;4.10;;;26.10;99.90;;;;;;5065333;28;20469;-83
2022/08/15 13:14:00;;;;;;;9.47;4.20;;;26.00;99.90;;;;;;5078750;28;20473;-81
2022/08/15 13:16:31;;;;;;;5.40;3.50;;;26.10;99.90;;;;;;5079198;28;20438;-81
2022/08/15 13:18:58;;;;;;;10.10;3.83;;;25.90;99.90;;;;;;5073786;28;20462;-81
2022/08/15 13:24:09;;;;;;;4.70;3.73;;;25.80;99.90;;;;;;5058974;28;20503;-81